KSPA/SPA METAR and TAF weather

Enter ICAO airport designator
Station Type Date Time Source
KSPA METAR 2022/01/27 22:55 UTC NOAA

KSPA 272255Z AUTO 00000KT 10SM CLR 05/M08 A3025 RMK AO2


Station Type Date Time Source
KSPA Decoded METAR 2022/01/27 22:55 UTC NOAA

Spartanburg Memorial, SC, United States (KSPA) 34-55N 081-57W
Jan 27, 2022 - 05:55 PM EST / 2022.01.27 2255 UTC
Wind: Calm:0
Visibility: 10 mile(s):0
Sky conditions: clear
Temperature: 41 F (5 C)
Dew Point: 17 F (-8 C)
Relative Humidity: 38%
Pressure (altimeter): 30.25 in. Hg (1024 hPa)
ob: KSPA 272255Z AUTO 00000KT 10SM CLR 05/M08 A3025 RMK AO2
cycle: 23

Station Type Date Time Source
KSPA TAF UTC NOAA

Error!

Example: see airport list